BEL5NZ EBBR-LIPE
Flight info
| Callsign | BEL5NZ |
|---|---|
| Flight time | 1h 30m |
| Altitude | 34000 |
| Route | ROUSY4K ROUSY DCT GTQ DCT DEVDI DCT RIPUS DCT RESIA DCT ATPED DCT TAGIP DCT MOVOR DCT ADOSA M738 BENUS BENUS3W |
| Aircraft | A319/M-SDE3FGHIRWY/LB1 |
Departure
| Time | 2026-05-04 15:13 |
|---|---|
| Airport | Brussels Airport (EBBR) |
Arrival
| Time | 2026-05-04 16:43 |
|---|---|
| Airport | Bologna Guglielmo Marconi Airport (LIPE) |
| Time | Latitude | Longitude | Altitude | Speed | Heading |
|---|---|---|---|---|---|
| 2026-05-04 14:37 | 50.90497 | 4.48903 | 197 ft | 0 kts | 155° |
| 2026-05-04 15:04 | 50.90509 | 4.48894 | 184 ft | 4 kts | 156° |
| 2026-05-04 15:04 | 50.90534 | 4.48876 | 201 ft | 4 kts | 155° |
| 2026-05-04 15:05 | 50.90558 | 4.48858 | 198 ft | 4 kts | 152° |
| 2026-05-04 15:05 | 50.90582 | 4.48837 | 199 ft | 4 kts | 146° |
| 2026-05-04 15:05 | 50.90587 | 4.48831 | 194 ft | 0 kts | 146° |
| 2026-05-04 15:08 | 50.90586 | 4.48832 | 184 ft | 0 kts | 146° |
| 2026-05-04 15:08 | 50.90581 | 4.48840 | 197 ft | 2 kts | 130° |
| 2026-05-04 15:08 | 50.90592 | 4.48890 | 184 ft | 6 kts | 60° |
| 2026-05-04 15:09 | 50.90614 | 4.48955 | 184 ft | 7 kts | 64° |
| 2026-05-04 15:09 | 50.90636 | 4.49032 | 190 ft | 8 kts | 66° |
| 2026-05-04 15:09 | 50.90661 | 4.49119 | 188 ft | 9 kts | 65° |
| 2026-05-04 15:10 | 50.90719 | 4.49319 | 196 ft | 11 kts | 65° |
| 2026-05-04 15:10 | 50.90751 | 4.49430 | 190 ft | 12 kts | 65° |
| 2026-05-04 15:10 | 50.90825 | 4.49685 | 186 ft | 13 kts | 65° |
| 2026-05-04 15:11 | 50.90893 | 4.49772 | 192 ft | 11 kts | 16° |
| 2026-05-04 15:11 | 50.90949 | 4.49815 | 192 ft | 9 kts | 37° |
| 2026-05-04 15:11 | 50.91004 | 4.49886 | 194 ft | 11 kts | 39° |
| 2026-05-04 15:11 | 50.91078 | 4.49941 | 182 ft | 13 kts | 22° |
| 2026-05-04 15:12 | 50.91137 | 4.49879 | 182 ft | 13 kts | 263° |
| 2026-05-04 15:12 | 50.91100 | 4.49740 | 183 ft | 18 kts | 245° |
| 2026-05-04 15:12 | 50.90951 | 4.49224 | 198 ft | 96 kts | 245° |
| 2026-05-04 15:12 | 50.90559 | 4.47857 | 230 ft | 167 kts | 247° |
| 2026-05-04 15:13 | 50.90066 | 4.46171 | 1012 ft | 168 kts | 245° |
| 2026-05-04 15:13 | 50.89552 | 4.44484 | 1901 ft | 172 kts | 245° |
| 2026-05-04 15:13 | 50.89006 | 4.42732 | 2672 ft | 186 kts | 245° |
| 2026-05-04 15:13 | 50.88427 | 4.40771 | 3162 ft | 209 kts | 247° |
| 2026-05-04 15:14 | 50.87801 | 4.38550 | 3666 ft | 233 kts | 247° |
| 2026-05-04 15:14 | 50.87106 | 4.36086 | 4215 ft | 257 kts | 246° |
| 2026-05-04 15:14 | 50.86354 | 4.33452 | 5107 ft | 266 kts | 246° |
| 2026-05-04 15:14 | 50.85385 | 4.30931 | 6098 ft | 273 kts | 229° |
| 2026-05-04 15:15 | 50.83860 | 4.29136 | 7057 ft | 278 kts | 204° |
| 2026-05-04 15:15 | 50.82600 | 4.28579 | 7699 ft | 281 kts | 186° |
| 2026-05-04 15:15 | 50.80662 | 4.28935 | 8651 ft | 285 kts | 159° |
| 2026-05-04 15:16 | 50.77986 | 4.33383 | 10428 ft | 297 kts | 110° |
| 2026-05-04 15:16 | 50.77257 | 4.36569 | 10770 ft | 320 kts | 109° |
| 2026-05-04 15:16 | 50.75757 | 4.43524 | 12021 ft | 342 kts | 108° |
| 2026-05-04 15:17 | 50.74983 | 4.47107 | 12836 ft | 347 kts | 109° |
| 2026-05-04 15:17 | 50.73382 | 4.54394 | 14372 ft | 355 kts | 109° |
| 2026-05-04 15:17 | 50.72563 | 4.58085 | 15100 ft | 358 kts | 109° |
| 2026-05-04 15:18 | 50.71751 | 4.61824 | 15816 ft | 362 kts | 108° |
| 2026-05-04 15:18 | 50.70999 | 4.65633 | 16533 ft | 365 kts | 107° |
| 2026-05-04 15:18 | 50.70284 | 4.69497 | 17240 ft | 369 kts | 107° |
| 2026-05-04 15:19 | 50.68862 | 4.77351 | 18640 ft | 377 kts | 107° |
| 2026-05-04 15:19 | 50.68124 | 4.81339 | 19285 ft | 381 kts | 108° |
| 2026-05-04 15:19 | 50.66415 | 4.89303 | 20485 ft | 386 kts | 118° |
| 2026-05-04 15:20 | 50.65013 | 4.92922 | 21096 ft | 388 kts | 129° |
| 2026-05-04 15:20 | 50.63215 | 4.96092 | 21680 ft | 389 kts | 137° |
| 2026-05-04 15:20 | 50.61270 | 4.99087 | 22273 ft | 393 kts | 137° |
| 2026-05-04 15:20 | 50.59311 | 5.02111 | 22844 ft | 396 kts | 137° |
| 2026-05-04 15:21 | 50.57335 | 5.05164 | 23401 ft | 399 kts | 137° |
| 2026-05-04 15:21 | 50.55348 | 5.08238 | 23875 ft | 402 kts | 138° |
| 2026-05-04 15:21 | 50.51337 | 5.14438 | 24823 ft | 406 kts | 139° |
| 2026-05-04 15:22 | 50.49314 | 5.17548 | 25303 ft | 408 kts | 139° |
| 2026-05-04 15:22 | 50.47277 | 5.20676 | 25777 ft | 410 kts | 139° |
| 2026-05-04 15:22 | 50.43179 | 5.26983 | 26702 ft | 415 kts | 139° |
| 2026-05-04 15:23 | 50.41116 | 5.30158 | 27155 ft | 417 kts | 139° |
| 2026-05-04 15:23 | 50.39041 | 5.33341 | 27599 ft | 419 kts | 139° |
| 2026-05-04 15:23 | 50.36953 | 5.36533 | 28045 ft | 421 kts | 140° |
| 2026-05-04 15:23 | 50.34851 | 5.39737 | 28485 ft | 423 kts | 140° |
| 2026-05-04 15:24 | 50.30615 | 5.46184 | 29323 ft | 427 kts | 140° |
| 2026-05-04 15:24 | 50.26330 | 5.52687 | 30122 ft | 431 kts | 140° |
| 2026-05-04 15:25 | 50.24166 | 5.55962 | 30423 ft | 435 kts | 140° |
| 2026-05-04 15:25 | 50.21987 | 5.59257 | 30730 ft | 437 kts | 140° |
| 2026-05-04 15:25 | 50.19800 | 5.62566 | 31048 ft | 439 kts | 140° |
| 2026-05-04 15:26 | 50.15403 | 5.69213 | 31792 ft | 440 kts | 141° |
| 2026-05-04 15:26 | 50.13212 | 5.72518 | 32269 ft | 438 kts | 141° |
| 2026-05-04 15:26 | 50.08731 | 5.78836 | 33170 ft | 430 kts | 149° |
| 2026-05-04 15:27 | 50.06195 | 5.81218 | 33654 ft | 423 kts | 158° |
| 2026-05-04 15:27 | 50.00753 | 5.84362 | 33993 ft | 411 kts | 165° |
| 2026-05-04 15:28 | 49.92669 | 5.88505 | 34002 ft | 406 kts | 165° |
| 2026-05-04 15:29 | 49.84613 | 5.92646 | 34000 ft | 407 kts | 166° |
| 2026-05-04 15:30 | 49.65768 | 6.02298 | 34000 ft | 408 kts | 166° |
| 2026-05-04 15:31 | 49.57687 | 6.06414 | 34002 ft | 407 kts | 166° |
| 2026-05-04 15:32 | 49.44749 | 6.15075 | 34001 ft | 417 kts | 146° |
| 2026-05-04 15:34 | 49.33456 | 6.29068 | 33974 ft | 417 kts | 146° |
| 2026-05-04 15:34 | 49.26686 | 6.37406 | 33978 ft | 415 kts | 146° |
| 2026-05-04 15:35 | 49.19923 | 6.45708 | 33982 ft | 416 kts | 146° |
| 2026-05-04 15:36 | 49.13150 | 6.53981 | 33985 ft | 416 kts | 146° |
| 2026-05-04 15:36 | 49.08627 | 6.59488 | 33990 ft | 416 kts | 146° |
| 2026-05-04 15:37 | 49.04104 | 6.64989 | 33968 ft | 416 kts | 147° |
| 2026-05-04 15:37 | 48.99556 | 6.70442 | 33976 ft | 414 kts | 150° |
| 2026-05-04 15:38 | 48.94513 | 6.74447 | 33985 ft | 408 kts | 160° |
| 2026-05-04 15:38 | 48.89327 | 6.77983 | 33988 ft | 409 kts | 160° |
| 2026-05-04 15:39 | 48.84138 | 6.81512 | 33995 ft | 409 kts | 160° |
| 2026-05-04 15:40 | 48.76350 | 6.86814 | 34004 ft | 409 kts | 160° |
| 2026-05-04 15:40 | 48.71164 | 6.90337 | 34006 ft | 408 kts | 160° |
| 2026-05-04 15:41 | 48.65979 | 6.93834 | 34006 ft | 408 kts | 160° |
| 2026-05-04 15:41 | 48.60789 | 6.97326 | 33983 ft | 409 kts | 160° |
| 2026-05-04 15:42 | 48.55588 | 7.00822 | 33981 ft | 410 kts | 160° |
| 2026-05-04 15:42 | 48.50373 | 7.04330 | 33986 ft | 411 kts | 160° |
| 2026-05-04 15:43 | 48.45148 | 7.07831 | 33991 ft | 411 kts | 160° |
| 2026-05-04 15:43 | 48.39923 | 7.11315 | 33989 ft | 411 kts | 160° |
| 2026-05-04 15:44 | 48.34699 | 7.14794 | 33989 ft | 410 kts | 160° |
| 2026-05-04 15:44 | 48.29484 | 7.18276 | 33988 ft | 410 kts | 160° |
| 2026-05-04 15:45 | 48.24271 | 7.21743 | 33986 ft | 410 kts | 160° |
| 2026-05-04 15:45 | 48.19021 | 7.25215 | 33980 ft | 410 kts | 161° |
| 2026-05-04 15:46 | 48.13801 | 7.28657 | 33967 ft | 410 kts | 160° |
| 2026-05-04 15:46 | 48.08569 | 7.32106 | 33971 ft | 412 kts | 160° |
| 2026-05-04 15:47 | 48.03321 | 7.35559 | 33976 ft | 412 kts | 161° |
| 2026-05-04 15:47 | 47.98060 | 7.39000 | 33970 ft | 413 kts | 161° |
| 2026-05-04 15:48 | 47.92795 | 7.42450 | 33976 ft | 414 kts | 161° |
| 2026-05-04 15:48 | 47.84878 | 7.47631 | 33977 ft | 415 kts | 161° |
| 2026-05-04 15:49 | 47.79591 | 7.51072 | 34003 ft | 415 kts | 161° |
| 2026-05-04 15:49 | 47.74505 | 7.55171 | 34000 ft | 423 kts | 147° |
| 2026-05-04 15:50 | 47.70481 | 7.61666 | 33993 ft | 433 kts | 131° |
| 2026-05-04 15:50 | 47.66917 | 7.68897 | 34002 ft | 434 kts | 131° |
| 2026-05-04 15:51 | 47.63321 | 7.76106 | 33997 ft | 435 kts | 131° |
| 2026-05-04 15:51 | 47.59716 | 7.83304 | 33999 ft | 435 kts | 131° |
| 2026-05-04 15:52 | 47.56113 | 7.90516 | 33994 ft | 435 kts | 131° |
| 2026-05-04 15:52 | 47.53120 | 7.96509 | 33990 ft | 435 kts | 131° |
| 2026-05-04 15:53 | 47.49513 | 8.03699 | 33976 ft | 436 kts | 131° |
| 2026-05-04 15:53 | 47.45892 | 8.10882 | 33980 ft | 436 kts | 131° |
| 2026-05-04 15:54 | 47.42267 | 8.18057 | 33985 ft | 436 kts | 131° |
| 2026-05-04 15:54 | 47.38642 | 8.25223 | 33986 ft | 436 kts | 131° |
| 2026-05-04 15:55 | 47.35010 | 8.32374 | 33954 ft | 435 kts | 131° |
| 2026-05-04 15:55 | 47.31373 | 8.39525 | 33955 ft | 436 kts | 131° |
| 2026-05-04 15:56 | 47.27721 | 8.46670 | 33947 ft | 437 kts | 131° |
| 2026-05-04 15:56 | 47.24073 | 8.53845 | 33953 ft | 438 kts | 130° |
| 2026-05-04 15:57 | 47.20490 | 8.61109 | 33961 ft | 439 kts | 130° |
| 2026-05-04 15:57 | 47.16924 | 8.68393 | 33968 ft | 439 kts | 130° |
| 2026-05-04 15:58 | 47.13338 | 8.75654 | 33959 ft | 439 kts | 130° |
| 2026-05-04 15:58 | 47.09732 | 8.82894 | 33980 ft | 440 kts | 130° |
| 2026-05-04 15:59 | 47.06113 | 8.90130 | 33980 ft | 439 kts | 130° |
| 2026-05-04 15:59 | 47.02495 | 8.97356 | 33989 ft | 440 kts | 130° |
| 2026-05-04 16:00 | 46.98872 | 9.04583 | 33988 ft | 440 kts | 130° |
| 2026-05-04 16:00 | 46.95235 | 9.11808 | 33994 ft | 441 kts | 130° |
| 2026-05-04 16:01 | 46.91591 | 9.19022 | 34011 ft | 441 kts | 130° |
| 2026-05-04 16:01 | 46.87941 | 9.26231 | 34015 ft | 441 kts | 130° |
| 2026-05-04 16:02 | 46.84288 | 9.33439 | 34028 ft | 441 kts | 130° |
| 2026-05-04 16:03 | 46.78799 | 9.44230 | 34020 ft | 441 kts | 130° |
| 2026-05-04 16:03 | 46.75130 | 9.51423 | 34053 ft | 442 kts | 130° |
| 2026-05-04 16:04 | 46.71452 | 9.58609 | 34080 ft | 442 kts | 130° |
| 2026-05-04 16:04 | 46.65922 | 9.69371 | 34101 ft | 441 kts | 130° |
| 2026-05-04 16:05 | 46.62243 | 9.76524 | 34109 ft | 443 kts | 130° |
| 2026-05-04 16:06 | 46.56688 | 9.87289 | 34113 ft | 444 kts | 130° |
| 2026-05-04 16:07 | 46.49221 | 10.01658 | 34112 ft | 444 kts | 131° |
| 2026-05-04 16:07 | 46.42541 | 10.10689 | 34108 ft | 438 kts | 144° |
| 2026-05-04 16:08 | 46.40196 | 10.13504 | 34110 ft | 438 kts | 144° |
| 2026-05-04 16:09 | 46.28422 | 10.27569 | 34118 ft | 440 kts | 144° |
| 2026-05-04 16:10 | 46.18971 | 10.38818 | 34120 ft | 440 kts | 144° |
| 2026-05-04 16:11 | 46.11873 | 10.47223 | 34006 ft | 442 kts | 144° |
| 2026-05-04 16:11 | 46.09493 | 10.50029 | 33558 ft | 441 kts | 144° |
| 2026-05-04 16:12 | 46.02384 | 10.58408 | 32271 ft | 440 kts | 144° |
| 2026-05-04 16:12 | 45.95299 | 10.66719 | 31050 ft | 435 kts | 144° |
| 2026-05-04 16:13 | 45.90656 | 10.72167 | 30254 ft | 427 kts | 143° |
| 2026-05-04 16:13 | 45.86084 | 10.77512 | 29349 ft | 421 kts | 143° |
| 2026-05-04 16:14 | 45.81554 | 10.82777 | 28467 ft | 417 kts | 143° |
| 2026-05-04 16:14 | 45.77062 | 10.87995 | 27616 ft | 414 kts | 143° |
| 2026-05-04 16:15 | 45.70392 | 10.95735 | 26378 ft | 409 kts | 143° |
| 2026-05-04 16:16 | 45.65862 | 11.00597 | 25577 ft | 404 kts | 152° |
| 2026-05-04 16:16 | 45.57934 | 11.04217 | 24418 ft | 400 kts | 172° |
| 2026-05-04 16:17 | 45.52459 | 11.05540 | 23670 ft | 398 kts | 172° |
| 2026-05-04 16:18 | 45.44334 | 11.07523 | 22387 ft | 391 kts | 172° |
| 2026-05-04 16:18 | 45.41662 | 11.08172 | 21972 ft | 388 kts | 172° |
| 2026-05-04 16:19 | 45.33763 | 11.10078 | 20743 ft | 380 kts | 173° |
| 2026-05-04 16:19 | 45.28600 | 11.11319 | 19977 ft | 371 kts | 173° |
| 2026-05-04 16:20 | 45.21131 | 11.13104 | 18835 ft | 356 kts | 173° |
| 2026-05-04 16:20 | 45.16280 | 11.14271 | 18045 ft | 351 kts | 173° |
| 2026-05-04 16:21 | 45.09159 | 11.15974 | 16785 ft | 341 kts | 173° |
| 2026-05-04 16:22 | 45.04528 | 11.17077 | 15973 ft | 334 kts | 172° |
| 2026-05-04 16:22 | 44.97731 | 11.18687 | 14794 ft | 327 kts | 172° |
| 2026-05-04 16:23 | 44.91150 | 11.20553 | 13640 ft | 319 kts | 157° |
| 2026-05-04 16:24 | 44.84167 | 11.28084 | 11972 ft | 312 kts | 143° |
| 2026-05-04 16:25 | 44.80808 | 11.31902 | 11173 ft | 309 kts | 143° |
| 2026-05-04 16:26 | 44.74231 | 11.39372 | 9584 ft | 299 kts | 143° |
| 2026-05-04 16:26 | 44.69439 | 11.44780 | 8332 ft | 290 kts | 143° |
| 2026-05-04 16:27 | 44.66331 | 11.48287 | 7530 ft | 283 kts | 142° |
| 2026-05-04 16:28 | 44.61791 | 11.53399 | 6365 ft | 275 kts | 142° |
| 2026-05-04 16:28 | 44.57450 | 11.58274 | 5926 ft | 256 kts | 142° |
| 2026-05-04 16:29 | 44.51881 | 11.64501 | 6094 ft | 258 kts | 143° |
| 2026-05-04 16:30 | 44.46962 | 11.64321 | 6097 ft | 258 kts | 221° |
| 2026-05-04 16:31 | 44.45466 | 11.60717 | 6097 ft | 262 kts | 244° |
| 2026-05-04 16:31 | 44.43893 | 11.53382 | 6085 ft | 263 kts | 254° |
| 2026-05-04 16:32 | 44.42528 | 11.45954 | 6076 ft | 262 kts | 252° |
| 2026-05-04 16:33 | 44.41585 | 11.41082 | 6071 ft | 256 kts | 251° |
| 2026-05-04 16:33 | 44.40882 | 11.36192 | 6069 ft | 260 kts | 265° |
| 2026-05-04 16:34 | 44.41479 | 11.31178 | 6063 ft | 267 kts | 288° |
| 2026-05-04 16:34 | 44.42275 | 11.28816 | 6055 ft | 268 kts | 295° |
| 2026-05-04 16:35 | 44.44743 | 11.21906 | 5534 ft | 264 kts | 297° |
| 2026-05-04 16:35 | 44.47273 | 11.15030 | 4938 ft | 265 kts | 297° |
| 2026-05-04 16:36 | 44.48124 | 11.12727 | 4734 ft | 266 kts | 297° |
| 2026-05-04 16:36 | 44.49792 | 11.08174 | 4407 ft | 257 kts | 297° |
| 2026-05-04 16:37 | 44.51355 | 11.03798 | 4214 ft | 246 kts | 297° |
| 2026-05-04 16:37 | 44.52216 | 11.01811 | 4106 ft | 233 kts | 313° |
| 2026-05-04 16:37 | 44.55045 | 11.00183 | 3842 ft | 223 kts | 5° |
| 2026-05-04 16:38 | 44.57773 | 11.01995 | 3740 ft | 220 kts | 37° |
| 2026-05-04 16:39 | 44.60447 | 11.06533 | 3332 ft | 194 kts | 77° |
| 2026-05-04 16:39 | 44.60238 | 11.10141 | 2902 ft | 181 kts | 111° |
| 2026-05-04 16:40 | 44.59175 | 11.13151 | 2464 ft | 162 kts | 116° |
| 2026-05-04 16:40 | 44.58215 | 11.15840 | 2071 ft | 150 kts | 115° |
| 2026-05-04 16:41 | 44.57285 | 11.18439 | 1659 ft | 148 kts | 115° |
| 2026-05-04 16:41 | 44.55901 | 11.22298 | 1008 ft | 147 kts | 117° |
| 2026-05-04 16:42 | 44.54522 | 11.26157 | 382 ft | 150 kts | 118° |
| 2026-05-04 16:43 | 44.53662 | 11.28526 | 134 ft | 106 kts | 117° |
| 2026-05-04 16:43 | 44.53263 | 11.29568 | 135 ft | 1 kts | 141° |
| 2026-05-04 16:43 | 44.53246 | 11.29590 | 135 ft | 5 kts | 137° |
| 2026-05-04 16:44 | 44.53041 | 11.29790 | 130 ft | 15 kts | 155° |
| 2026-05-04 16:45 | 44.52996 | 11.29696 | 132 ft | 8 kts | 298° |
| 2026-05-04 16:46 | 44.53047 | 11.29548 | 135 ft | 0 kts | 259° |
| 2026-05-04 16:46 | 44.53027 | 11.29532 | 135 ft | 3 kts | 213° |
| 2026-05-04 16:47 | 44.53002 | 11.29513 | 134 ft | 0 kts | 207° |